Time;durP1;ratioP1;P1;durP2;ratioP2;P2;SDS_P1;SDS_P2;PMS_P1;PMS_P2;Temp;Humidity;BMP_temperature;BMP_pressure;BME280_temperature;BME280_humidity;BME280_pressure;Samples;Min_cycle;Max_cycle;Signal;HPM_P1;HPM_P2
2023/05/18 00:00:48;;;;;;;0.90;0.90;;;;;;;;;;5012878;28;20194;-88
2023/05/18 00:03:17;;;;;;;2.37;1.33;;;;;;;;;;5012345;28;20205;-87
2023/05/18 00:05:46;;;;;;;0.80;0.80;;;;;;;;;;5012439;28;20235;-87
2023/05/18 00:08:14;;;;;;;0.80;0.80;;;;;;;;;;5013603;28;20203;-87
2023/05/18 00:10:44;;;;;;;0.70;0.70;;;;;;;;;;5013000;28;20205;-87
2023/05/18 00:13:14;;;;;;;1.03;1.03;;;;;;;;;;5012874;28;20214;-86
2023/05/18 00:15:43;;;;;;;1.00;1.00;;;;;;;;;;5012625;28;20203;-87
2023/05/18 00:18:11;;;;;;;0.70;0.70;;;;;;;;;;5011545;28;20235;-87
2023/05/18 00:20:40;;;;;;;0.80;0.80;;;;;;;;;;5012727;28;20208;-88
2023/05/18 00:23:09;;;;;;;1.00;1.00;;;;;;;;;;5012187;28;20214;-87
2023/05/18 00:25:37;;;;;;;0.80;0.80;;;;;;;;;;5012534;28;20213;-87
2023/05/18 00:28:07;;;;;;;0.80;0.80;;;;;;;;;;5012207;28;20216;-87
2023/05/18 00:30:36;;;;;;;2.03;1.30;;;;;;;;;;5012494;28;20219;-87
2023/05/18 00:33:04;;;;;;;1.33;1.33;;;;;;;;;;5012720;28;20211;-87
2023/05/18 00:35:33;;;;;;;1.50;1.50;;;;;;;;;;5011976;28;20199;-87
2023/05/18 00:38:02;;;;;;;1.00;1.00;;;;;;;;;;5012086;28;20226;-87
2023/05/18 00:40:30;;;;;;;0.70;0.70;;;;;;;;;;5013716;28;20198;-87
2023/05/18 00:42:59;;;;;;;0.70;0.70;;;;;;;;;;5016045;28;20213;-87
2023/05/18 00:45:29;;;;;;;0.70;0.70;;;;;;;;;;5016262;28;20252;-87
2023/05/18 00:47:58;;;;;;;0.70;0.70;;;;;;;;;;5016318;28;20207;-87
2023/05/18 00:50:27;;;;;;;0.80;0.80;;;;;;;;;;5014509;28;20215;-87
2023/05/18 00:52:55;;;;;;;0.77;0.77;;;;;;;;;;5016009;28;20207;-87
2023/05/18 00:55:25;;;;;;;0.80;0.80;;;;;;;;;;5015914;28;20210;-87
2023/05/18 00:57:55;;;;;;;0.63;0.63;;;;;;;;;;5015889;28;20215;-87
2023/05/18 01:00:24;;;;;;;1.13;0.93;;;;;;;;;;5015583;28;20229;-87
2023/05/18 01:02:54;;;;;;;1.00;1.00;;;;;;;;;;5015545;28;20209;-87
2023/05/18 01:05:22;;;;;;;0.90;0.90;;;;;;;;;;5015621;28;20238;-87
2023/05/18 01:07:51;;;;;;;0.70;0.70;;;;;;;;;;5015585;28;20200;-87
2023/05/18 01:10:20;;;;;;;0.90;0.90;;;;;;;;;;5015797;28;20273;-87
2023/05/18 01:12:50;;;;;;;1.23;1.23;;;;;;;;;;5015700;28;20200;-87
2023/05/18 01:15:20;;;;;;;0.70;0.70;;;;;;;;;;5014893;28;20203;-87
2023/05/18 01:17:59;;;;;;;1.23;1.10;;;;;;;;;;5015402;28;20270;-87
2023/05/18 01:20:44;;;;;;;0.70;0.70;;;;;;;;;;5015642;28;20205;-86
2023/05/18 01:23:19;;;;;;;1.40;1.40;;;;;;;;;;5015035;28;20213;-87
2023/05/18 01:25:50;;;;;;;11.30;3.00;;;;;;;;;;5015368;28;20216;-87
2023/05/18 01:28:21;;;;;;;2.07;1.67;;;;;;;;;;5015404;28;20224;-87
2023/05/18 01:30:50;;;;;;;0.70;0.70;;;;;;;;;;5015124;28;20231;-87
2023/05/18 01:33:19;;;;;;;0.90;0.90;;;;;;;;;;5015421;28;20206;-87
2023/05/18 01:35:47;;;;;;;0.70;0.70;;;;;;;;;;5015045;28;20510;-87
2023/05/18 01:38:16;;;;;;;0.80;0.80;;;;;;;;;;5015163;28;20226;-87
2023/05/18 01:40:49;;;;;;;0.70;0.70;;;;;;;;;;5015171;28;20204;-87
2023/05/18 01:43:19;;;;;;;0.80;0.80;;;;;;;;;;5014995;28;20207;-87
2023/05/18 01:45:51;;;;;;;0.60;0.60;;;;;;;;;;5014687;28;20200;-87
2023/05/18 01:48:22;;;;;;;1.73;1.63;;;;;;;;;;5014745;28;20204;-87
2023/05/18 01:50:52;;;;;;;0.83;0.83;;;;;;;;;;5014388;28;20237;-87
2023/05/18 01:53:24;;;;;;;0.83;0.83;;;;;;;;;;5014926;28;20199;-87
2023/05/18 01:55:54;;;;;;;0.80;0.80;;;;;;;;;;5014807;28;20203;-86
2023/05/18 01:58:23;;;;;;;0.93;0.93;;;;;;;;;;5014575;28;20232;-86
2023/05/18 02:00:53;;;;;;;1.03;1.03;;;;;;;;;;5014101;28;20213;-87
2023/05/18 02:03:21;;;;;;;1.37;1.37;;;;;;;;;;5014090;28;20199;-87
2023/05/18 02:05:50;;;;;;;0.90;0.90;;;;;;;;;;5014653;28;20255;-87
2023/05/18 02:08:18;;;;;;;0.80;0.80;;;;;;;;;;5014906;28;20206;-87
2023/05/18 02:10:47;;;;;;;1.73;1.63;;;;;;;;;;5014169;28;20204;-87
2023/05/18 02:13:16;;;;;;;0.80;0.80;;;;;;;;;;5014999;28;20205;-86
2023/05/18 02:15:44;;;;;;;0.80;0.80;;;;;;;;;;5015410;28;20204;-87
2023/05/18 02:18:15;;;;;;;1.00;1.00;;;;;;;;;;5014006;28;20233;-87
2023/05/18 02:20:47;;;;;;;0.87;0.87;;;;;;;;;;5014700;28;20303;-87
2023/05/18 02:23:16;;;;;;;1.00;1.00;;;;;;;;;;5014027;28;20211;-87
2023/05/18 02:25:45;;;;;;;0.93;0.93;;;;;;;;;;5014888;28;20288;-87
2023/05/18 02:28:13;;;;;;;3.83;2.13;;;;;;;;;;5014382;28;20225;-86
2023/05/18 02:30:42;;;;;;;2.20;2.00;;;;;;;;;;5014429;28;20205;-87
2023/05/18 02:33:10;;;;;;;1.80;1.70;;;;;;;;;;5014561;28;20200;-86
2023/05/18 02:35:40;;;;;;;2.60;1.73;;;;;;;;;;5013698;28;20209;-87
2023/05/18 02:38:09;;;;;;;1.57;1.47;;;;;;;;;;5014625;28;20221;-86
2023/05/18 02:40:38;;;;;;;1.20;1.20;;;;;;;;;;5013729;28;20205;-87
2023/05/18 02:43:06;;;;;;;2.33;2.10;;;;;;;;;;5014184;28;20208;-86
2023/05/18 02:45:35;;;;;;;1.47;1.37;;;;;;;;;;5013855;28;20269;-87
2023/05/18 02:48:03;;;;;;;1.77;1.67;;;;;;;;;;5014223;28;20215;-87
2023/05/18 02:50:32;;;;;;;1.87;1.77;;;;;;;;;;5013729;28;20210;-87
2023/05/18 02:53:02;;;;;;;1.10;1.10;;;;;;;;;;5014042;28;20213;-86
2023/05/18 02:55:30;;;;;;;1.60;1.33;;;;;;;;;;5013787;28;20209;-86
2023/05/18 02:58:01;;;;;;;2.13;2.03;;;;;;;;;;5013788;28;20264;-86
2023/05/18 03:00:30;;;;;;;2.53;1.63;;;;;;;;;;5013118;28;20191;-87
2023/05/18 03:02:59;;;;;;;3.40;1.43;;;;;;;;;;5012598;28;20273;-87
2023/05/18 03:05:27;;;;;;;1.50;1.40;;;;;;;;;;5013360;28;20234;-87
2023/05/18 03:07:57;;;;;;;1.50;1.50;;;;;;;;;;5013162;28;20226;-86
2023/05/18 03:10:27;;;;;;;1.00;1.00;;;;;;;;;;5013686;28;20226;-87
2023/05/18 03:12:55;;;;;;;1.03;1.03;;;;;;;;;;5013229;28;20216;-86
2023/05/18 03:15:23;;;;;;;1.20;1.20;;;;;;;;;;5012798;28;20213;-87
2023/05/18 03:17:52;;;;;;;2.77;1.60;;;;;;;;;;5012740;28;20238;-86
2023/05/18 03:20:21;;;;;;;1.23;1.20;;;;;;;;;;5013276;28;20325;-86
2023/05/18 03:22:50;;;;;;;1.07;1.07;;;;;;;;;;5013043;28;20213;-86
2023/05/18 03:25:18;;;;;;;1.33;1.27;;;;;;;;;;5013138;28;20202;-86
2023/05/18 03:27:50;;;;;;;1.53;1.43;;;;;;;;;;5013068;28;20272;-87
2023/05/18 03:30:19;;;;;;;0.93;0.93;;;;;;;;;;5012846;28;20201;-87
2023/05/18 03:32:47;;;;;;;1.33;1.33;;;;;;;;;;5013120;28;20256;-87
2023/05/18 03:35:16;;;;;;;0.90;0.90;;;;;;;;;;5013001;28;20234;-86
2023/05/18 03:37:44;;;;;;;1.37;1.33;;;;;;;;;;5012901;28;20210;-87
2023/05/18 03:40:17;;;;;;;0.90;0.90;;;;;;;;;;5012381;28;20247;-87
2023/05/18 03:42:47;;;;;;;0.80;0.80;;;;;;;;;;5012476;28;20197;-87
2023/05/18 03:45:15;;;;;;;0.70;0.70;;;;;;;;;;5012734;28;20319;-87
2023/05/18 03:47:44;;;;;;;0.73;0.73;;;;;;;;;;5012175;28;20205;-87
2023/05/18 03:50:12;;;;;;;1.20;1.20;;;;;;;;;;5012927;28;20252;-87
2023/05/18 03:52:41;;;;;;;1.33;1.33;;;;;;;;;;5012622;28;20209;-87
2023/05/18 03:55:10;;;;;;;0.80;0.80;;;;;;;;;;5012502;28;20194;-87
2023/05/18 03:57:38;;;;;;;0.90;0.90;;;;;;;;;;5012889;28;20205;-87
2023/05/18 04:00:11;;;;;;;1.07;1.07;;;;;;;;;;5012388;28;20225;-87
2023/05/18 04:02:40;;;;;;;0.80;0.80;;;;;;;;;;5012661;28;20210;-87
2023/05/18 04:05:09;;;;;;;1.27;1.17;;;;;;;;;;5012771;28;20302;-87
2023/05/18 04:07:42;;;;;;;1.63;1.53;;;;;;;;;;5012667;28;20194;-87
2023/05/18 04:10:12;;;;;;;0.80;0.80;;;;;;;;;;5012752;28;20206;-87
2023/05/18 04:12:40;;;;;;;0.70;0.70;;;;;;;;;;5012196;28;20369;-87
2023/05/18 04:15:13;;;;;;;1.00;1.00;;;;;;;;;;5014989;28;20201;-87
2023/05/18 04:17:44;;;;;;;2.47;2.10;;;;;;;;;;5016418;28;20245;-87
2023/05/18 04:20:14;;;;;;;2.83;1.60;;;;;;;;;;5015670;28;20245;-87
2023/05/18 04:22:47;;;;;;;1.10;1.10;;;;;;;;;;5016856;28;20205;-87
2023/05/18 04:25:16;;;;;;;1.07;1.07;;;;;;;;;;5016213;28;20194;-87
2023/05/18 04:27:44;;;;;;;1.17;1.17;;;;;;;;;;5015905;28;20222;-87
2023/05/18 04:30:21;;;;;;;1.10;1.10;;;;;;;;;;5016559;28;20203;-87
2023/05/18 04:32:50;;;;;;;1.37;1.30;;;;;;;;;;5016342;28;20272;-87
2023/05/18 04:35:18;;;;;;;1.23;1.23;;;;;;;;;;5015904;28;20289;-87
2023/05/18 04:37:47;;;;;;;1.50;1.20;;;;;;;;;;5015638;28;20205;-86
2023/05/18 04:40:18;;;;;;;0.83;0.83;;;;;;;;;;5016343;28;20219;-87
2023/05/18 04:42:47;;;;;;;1.47;1.47;;;;;;;;;;5016187;28;20230;-86
2023/05/18 04:45:16;;;;;;;1.07;1.07;;;;;;;;;;5016056;28;20213;-86
2023/05/18 04:47:46;;;;;;;2.10;1.73;;;;;;;;;;5016101;28;20217;-86
2023/05/18 04:50:16;;;;;;;0.93;0.93;;;;;;;;;;5016307;28;20245;-86
2023/05/18 04:52:47;;;;;;;0.77;0.77;;;;;;;;;;5015728;28;20198;-87
2023/05/18 04:55:21;;;;;;;1.50;1.40;;;;;;;;;;5016070;28;20202;-87
2023/05/18 04:57:52;;;;;;;2.03;1.53;;;;;;;;;;5016106;28;20206;-87
2023/05/18 05:00:21;;;;;;;2.87;1.70;;;;;;;;;;5015211;28;20228;-87
2023/05/18 05:02:51;;;;;;;2.60;1.07;;;;;;;;;;5015592;28;20203;-86
2023/05/18 05:05:20;;;;;;;2.10;1.90;;;;;;;;;;5015527;28;20198;-87
2023/05/18 05:07:50;;;;;;;2.10;1.67;;;;;;;;;;5015497;28;20230;-87
2023/05/18 05:10:18;;;;;;;2.23;1.53;;;;;;;;;;5015830;28;20216;-86
2023/05/18 05:12:50;;;;;;;1.83;1.73;;;;;;;;;;5015308;28;20210;-87
2023/05/18 05:15:18;;;;;;;0.93;0.93;;;;;;;;;;5015717;28;20205;-87
2023/05/18 05:17:47;;;;;;;0.80;0.80;;;;;;;;;;5015326;28;20246;-86
2023/05/18 05:20:17;;;;;;;2.13;1.67;;;;;;;;;;5015261;28;20254;-86
2023/05/18 05:22:45;;;;;;;2.40;2.30;;;;;;;;;;5015694;28;20201;-87
2023/05/18 05:25:17;;;;;;;3.40;2.47;;;;;;;;;;5015047;28;20238;-87
2023/05/18 05:27:46;;;;;;;2.43;1.33;;;;;;;;;;5015001;28;20236;-87
2023/05/18 05:30:14;;;;;;;1.63;1.53;;;;;;;;;;5015358;28;20196;-87
2023/05/18 05:32:43;;;;;;;2.17;1.67;;;;;;;;;;5014430;28;20207;-86
2023/05/18 05:35:11;;;;;;;2.93;2.23;;;;;;;;;;5015127;28;20298;-87
2023/05/18 05:37:41;;;;;;;5.33;2.23;;;;;;;;;;5015433;28;20267;-86
2023/05/18 05:40:10;;;;;;;0.70;0.70;;;;;;;;;;5014750;28;20229;-87
2023/05/18 05:42:40;;;;;;;1.40;1.40;;;;;;;;;;5015032;28;20203;-87
2023/05/18 05:45:09;;;;;;;15.27;4.30;;;;;;;;;;5014429;28;20198;-87
2023/05/18 05:47:37;;;;;;;0.80;0.80;;;;;;;;;;5014859;28;20214;-87
2023/05/18 05:50:06;;;;;;;2.03;1.83;;;;;;;;;;5014997;28;20204;-87
2023/05/18 05:52:34;;;;;;;3.37;2.40;;;;;;;;;;5015118;28;20223;-87
2023/05/18 05:55:05;;;;;;;0.97;0.97;;;;;;;;;;5014606;28;20208;-87
2023/05/18 05:57:33;;;;;;;0.63;0.63;;;;;;;;;;5014533;28;20250;-87
2023/05/18 06:00:03;;;;;;;0.70;0.70;;;;;;;;;;5015468;28;20338;-87
2023/05/18 06:02:32;;;;;;;1.00;1.00;;;;;;;;;;5015377;28;20211;-87
2023/05/18 06:05:01;;;;;;;3.27;3.03;;;;;;;;;;5014536;28;20203;-87
2023/05/18 06:07:30;;;;;;;1.07;1.07;;;;;;;;;;5014269;28;20200;-87
2023/05/18 06:09:58;;;;;;;1.43;1.43;;;;;;;;;;5015040;28;20207;-87
2023/05/18 06:12:28;;;;;;;1.00;1.00;;;;;;;;;;5014363;28;20208;-87
2023/05/18 06:14:57;;;;;;;12.33;1.67;;;;;;;;;;5014430;28;20203;-87
2023/05/18 06:17:25;;;;;;;1.80;1.10;;;;;;;;;;5014901;28;20252;-86
2023/05/18 06:19:54;;;;;;;1.20;1.13;;;;;;;;;;5014230;28;20298;-87
2023/05/18 06:22:24;;;;;;;1.40;1.40;;;;;;;;;;5014613;28;20347;-87
2023/05/18 06:24:52;;;;;;;0.77;0.77;;;;;;;;;;5014219;28;20208;-87
2023/05/18 06:27:20;;;;;;;1.50;1.23;;;;;;;;;;5014442;28;20219;-87
2023/05/18 06:29:51;;;;;;;0.73;0.73;;;;;;;;;;5014204;28;20203;-87
2023/05/18 06:32:20;;;;;;;1.00;1.00;;;;;;;;;;5013838;28;20200;-87
2023/05/18 06:34:49;;;;;;;1.93;1.67;;;;;;;;;;5013629;28;20283;-87
2023/05/18 06:37:19;;;;;;;2.10;1.93;;;;;;;;;;5013706;28;20222;-87
2023/05/18 06:39:47;;;;;;;0.80;0.80;;;;;;;;;;5013628;28;20196;-87
2023/05/18 06:42:16;;;;;;;1.10;1.10;;;;;;;;;;5013789;28;20227;-87
2023/05/18 06:44:44;;;;;;;6.43;1.90;;;;;;;;;;5013564;28;20200;-87
2023/05/18 06:47:15;;;;;;;3.33;1.20;;;;;;;;;;5013678;28;20211;-87
2023/05/18 06:49:44;;;;;;;5.80;1.47;;;;;;;;;;5013459;28;20199;-86
2023/05/18 06:52:12;;;;;;;1.53;1.43;;;;;;;;;;5013478;28;20196;-86
2023/05/18 06:54:41;;;;;;;2.57;1.17;;;;;;;;;;5013689;28;20226;-87
2023/05/18 06:57:09;;;;;;;3.03;1.40;;;;;;;;;;5013912;28;20196;-86
2023/05/18 06:59:38;;;;;;;1.60;1.40;;;;;;;;;;5013546;28;20188;-86
2023/05/18 07:02:06;;;;;;;1.63;1.20;;;;;;;;;;5013433;28;20220;-86
2023/05/18 07:04:36;;;;;;;2.13;1.63;;;;;;;;;;5013536;28;20215;-86
2023/05/18 07:07:04;;;;;;;2.47;1.33;;;;;;;;;;5013753;28;20203;-87
2023/05/18 07:09:33;;;;;;;1.33;1.13;;;;;;;;;;5013286;28;20223;-86
2023/05/18 07:12:01;;;;;;;4.80;1.87;;;;;;;;;;5013916;28;20195;-86
2023/05/18 07:14:30;;;;;;;2.27;2.07;;;;;;;;;;5013400;28;20349;-87
2023/05/18 07:16:58;;;;;;;9.03;1.67;;;;;;;;;;5013438;28;20206;-87
2023/05/18 07:19:27;;;;;;;3.93;1.90;;;;;;;;;;5012805;28;20275;-87
2023/05/18 07:21:58;;;;;;;1.70;1.43;;;;;;;;;;5013140;28;20223;-87
2023/05/18 07:24:26;;;;;;;5.40;2.40;;;;;;;;;;5013039;28;20215;-87
2023/05/18 07:26:55;;;;;;;5.33;1.90;;;;;;;;;;5013182;28;20223;-87
2023/05/18 07:29:25;;;;;;;3.40;1.40;;;;;;;;;;5013311;28;20217;-87
2023/05/18 07:31:54;;;;;;;7.40;2.80;;;;;;;;;;5012704;28;20199;-87
2023/05/18 07:34:25;;;;;;;1.77;1.67;;;;;;;;;;5012959;28;20301;-86
2023/05/18 07:36:54;;;;;;;7.67;2.97;;;;;;;;;;5013056;28;20299;-86
2023/05/18 07:39:27;;;;;;;24.50;3.43;;;;;;;;;;5012642;28;20199;-87
2023/05/18 07:41:56;;;;;;;3.03;1.50;;;;;;;;;;5013094;28;20270;-87
2023/05/18 07:44:24;;;;;;;1.60;1.50;;;;;;;;;;5013656;28;20238;-87
2023/05/18 07:46:53;;;;;;;1.43;1.40;;;;;;;;;;5012825;28;20192;-87
2023/05/18 07:49:22;;;;;;;7.47;1.83;;;;;;;;;;5012138;28;20209;-87
2023/05/18 07:51:50;;;;;;;0.60;0.60;;;;;;;;;;5012898;28;20200;-87
2023/05/18 07:54:19;;;;;;;4.93;2.60;;;;;;;;;;5012908;28;20196;-87
2023/05/18 07:56:49;;;;;;;3.13;1.77;;;;;;;;;;5012683;28;20212;-87
2023/05/18 07:59:17;;;;;;;1.47;1.00;;;;;;;;;;5012898;28;20200;-86
2023/05/18 08:01:47;;;;;;;6.07;1.90;;;;;;;;;;5012418;28;20227;-87
2023/05/18 08:04:16;;;;;;;1.30;1.30;;;;;;;;;;5012682;28;20200;-86
2023/05/18 08:06:45;;;;;;;5.10;2.03;;;;;;;;;;5012528;28;20212;-86
2023/05/18 08:09:13;;;;;;;0.70;0.70;;;;;;;;;;5012466;28;20211;-87
2023/05/18 08:11:43;;;;;;;2.20;1.50;;;;;;;;;;5012732;28;20205;-87
2023/05/18 08:14:13;;;;;;;3.10;1.23;;;;;;;;;;5012543;28;20258;-87
2023/05/18 08:16:42;;;;;;;1.60;1.50;;;;;;;;;;5013003;28;20201;-86
2023/05/18 08:19:10;;;;;;;1.03;0.80;;;;;;;;;;5012092;28;20247;-87
2023/05/18 08:21:39;;;;;;;3.70;1.80;;;;;;;;;;5012364;28;20231;-87
2023/05/18 08:24:08;;;;;;;6.87;2.40;;;;;;;;;;5012774;28;20275;-86
2023/05/18 08:26:36;;;;;;;4.43;2.90;;;;;;;;;;5012505;28;20208;-86
2023/05/18 08:29:08;;;;;;;3.03;2.07;;;;;;;;;;5012532;28;20203;-87
2023/05/18 08:31:38;;;;;;;1.70;1.60;;;;;;;;;;5012634;28;20211;-87
2023/05/18 08:34:07;;;;;;;3.23;1.67;;;;;;;;;;5012461;28;20200;-87
2023/05/18 08:36:36;;;;;;;2.47;2.07;;;;;;;;;;5011955;28;20200;-87
2023/05/18 08:39:05;;;;;;;3.17;1.33;;;;;;;;;;5012256;28;20207;-87
2023/05/18 08:41:36;;;;;;;5.33;2.30;;;;;;;;;;5012644;28;20281;-86
2023/05/18 08:44:09;;;;;;;4.17;3.03;;;;;;;;;;5012074;28;20204;-87
2023/05/18 08:46:41;;;;;;;1.10;1.10;;;;;;;;;;5012155;28;20226;-86
2023/05/18 08:49:10;;;;;;;1.67;1.57;;;;;;;;;;5012056;28;20210;-87
2023/05/18 08:51:38;;;;;;;5.67;2.77;;;;;;;;;;5012290;28;20193;-86
2023/05/18 08:54:08;;;;;;;2.10;1.77;;;;;;;;;;5011849;28;20204;-87
2023/05/18 08:56:37;;;;;;;1.37;1.27;;;;;;;;;;5012460;28;20204;-86
2023/05/18 08:59:07;;;;;;;3.00;2.40;;;;;;;;;;5012623;28;20200;-87
2023/05/18 09:01:35;;;;;;;1.93;1.60;;;;;;;;;;5013385;28;20227;-87
2023/05/18 09:04:06;;;;;;;2.57;1.33;;;;;;;;;;5015983;28;20277;-87
2023/05/18 09:06:35;;;;;;;4.83;2.10;;;;;;;;;;5016297;28;20200;-87
2023/05/18 09:09:05;;;;;;;1.53;1.47;;;;;;;;;;5015440;28;20212;-87
2023/05/18 09:11:35;;;;;;;4.00;2.53;;;;;;;;;;5015660;28;20204;-86
2023/05/18 09:14:03;;;;;;;9.77;2.17;;;;;;;;;;5015921;28;20204;-86
2023/05/18 09:16:32;;;;;;;5.50;2.20;;;;;;;;;;5015098;28;20208;-86
2023/05/18 09:19:01;;;;;;;4.80;1.90;;;;;;;;;;5013025;28;20239;-87
2023/05/18 09:21:32;;;;;;;2.93;1.37;;;;;;;;;;5015760;28;20215;-87
2023/05/18 09:24:01;;;;;;;4.33;2.37;;;;;;;;;;5015858;28;20196;-87
2023/05/18 09:26:29;;;;;;;2.87;2.33;;;;;;;;;;5015436;28;20201;-86
2023/05/18 09:28:58;;;;;;;7.73;2.20;;;;;;;;;;5015180;28;20209;-86
2023/05/18 09:31:27;;;;;;;3.70;2.97;;;;;;;;;;5015668;28;20217;-87
2023/05/18 09:33:56;;;;;;;1.23;1.23;;;;;;;;;;5015229;28;20203;-86
2023/05/18 09:36:27;;;;;;;2.37;1.37;;;;;;;;;;5015291;28;20244;-86
2023/05/18 09:38:57;;;;;;;3.30;1.73;;;;;;;;;;5014969;28;20192;-86
2023/05/18 09:41:27;;;;;;;1.60;1.50;;;;;;;;;;5015074;28;20204;-87
2023/05/18 09:43:55;;;;;;;2.10;1.57;;;;;;;;;;5015670;28;20227;-87
2023/05/18 09:46:24;;;;;;;5.07;2.37;;;;;;;;;;5015299;28;20200;-87
2023/05/18 09:48:53;;;;;;;5.60;1.10;;;;;;;;;;5014184;28;20205;-87
2023/05/18 09:51:23;;;;;;;1.00;0.87;;;;;;;;;;5014600;28;20294;-86
2023/05/18 09:53:54;;;;;;;1.60;1.50;;;;;;;;;;5014602;28;20197;-87
2023/05/18 09:56:25;;;;;;;1.20;1.20;;;;;;;;;;5014764;28;20210;-86
2023/05/18 09:58:54;;;;;;;8.73;2.60;;;;;;;;;;5015127;28;20203;-86
2023/05/18 10:01:23;;;;;;;2.90;1.97;;;;;;;;;;5015125;28;20232;-87
2023/05/18 10:03:52;;;;;;;4.63;2.60;;;;;;;;;;5014730;28;20276;-87
2023/05/18 10:06:21;;;;;;;4.47;1.43;;;;;;;;;;5015104;28;20208;-86
2023/05/18 10:08:49;;;;;;;1.40;1.30;;;;;;;;;;5014766;28;20232;-87
2023/05/18 10:11:20;;;;;;;5.07;1.57;;;;;;;;;;5014338;28;20204;-87
2023/05/18 10:13:54;;;;;;;1.97;1.53;;;;;;;;;;5014051;28;20205;-87
2023/05/18 10:16:24;;;;;;;7.13;3.30;;;;;;;;;;5014753;28;20204;-87
2023/05/18 10:18:55;;;;;;;2.43;1.87;;;;;;;;;;5012289;28;20292;-87
2023/05/18 10:21:25;;;;;;;6.57;2.67;;;;;;;;;;5014580;28;20198;-86
2023/05/18 10:23:53;;;;;;;3.37;1.67;;;;;;;;;;5014434;28;20226;-86
2023/05/18 10:26:23;;;;;;;2.23;1.73;;;;;;;;;;5014382;28;20197;-87
2023/05/18 10:28:53;;;;;;;1.60;1.50;;;;;;;;;;5014313;28;20209;-87
2023/05/18 10:31:22;;;;;;;8.57;2.60;;;;;;;;;;5014229;28;20209;-87
2023/05/18 10:33:51;;;;;;;2.27;1.37;;;;;;;;;;5014669;28;20212;-87
2023/05/18 10:36:20;;;;;;;2.17;1.97;;;;;;;;;;5014348;28;20202;-87
2023/05/18 10:38:52;;;;;;;4.87;2.00;;;;;;;;;;5014337;28;20198;-87
2023/05/18 10:41:21;;;;;;;4.17;2.33;;;;;;;;;;5014909;28;20206;-87
2023/05/18 10:43:50;;;;;;;3.93;1.83;;;;;;;;;;5013839;28;20225;-87
2023/05/18 10:46:25;;;;;;;6.10;3.37;;;;;;;;;;5013736;28;20207;-87
2023/05/18 10:48:54;;;;;;;6.37;2.13;;;;;;;;;;5014224;28;20212;-87
2023/05/18 10:51:23;;;;;;;3.33;1.57;;;;;;;;;;5014060;28;20207;-87
2023/05/18 10:53:52;;;;;;;6.07;2.27;;;;;;;;;;5014075;28;20203;-87
2023/05/18 10:56:25;;;;;;;2.27;2.10;;;;;;;;;;5014272;28;20264;-87
2023/05/18 10:58:55;;;;;;;3.60;2.77;;;;;;;;;;5013441;28;20238;-86
2023/05/18 11:01:27;;;;;;;6.97;3.33;;;;;;;;;;5013320;28;20211;-86
2023/05/18 11:03:56;;;;;;;6.63;2.97;;;;;;;;;;5013740;28;20261;-87
2023/05/18 11:06:26;;;;;;;8.90;3.40;;;;;;;;;;5014065;28;20211;-87
2023/05/18 11:08:54;;;;;;;3.47;2.17;;;;;;;;;;5013380;28;20264;-87
2023/05/18 11:11:25;;;;;;;2.00;1.90;;;;;;;;;;5013717;28;20211;-87
2023/05/18 11:13:53;;;;;;;3.17;2.10;;;;;;;;;;5013619;28;20225;-87
2023/05/18 11:16:33;;;;;;;3.50;2.37;;;;;;;;;;5013784;28;20196;-87
2023/05/18 11:19:11;;;;;;;4.93;2.00;;;;;;;;;;5013363;28;20222;-86
2023/05/18 11:21:52;;;;;;;8.47;2.70;;;;;;;;;;5013400;28;20254;-86
2023/05/18 11:24:23;;;;;;;3.80;2.53;;;;;;;;;;5012478;28;20209;-86
2023/05/18 11:26:52;;;;;;;4.53;2.77;;;;;;;;;;5013279;28;20230;-86
2023/05/18 11:29:23;;;;;;;1.70;1.43;;;;;;;;;;5013194;28;20215;-87
2023/05/18 11:31:53;;;;;;;4.90;4.13;;;;;;;;;;5013680;28;20207;-87
2023/05/18 11:34:43;;;;;;;4.50;2.60;;;;;;;;;;5012903;28;20215;-86
2023/05/18 11:37:13;;;;;;;6.00;3.07;;;;;;;;;;5012595;28;20207;-87
2023/05/18 11:39:42;;;;;;;2.20;1.97;;;;;;;;;;5013226;28;20205;-87
2023/05/18 11:42:32;;;;;;;6.03;2.60;;;;;;;;;;5012199;28;20204;-87
2023/05/18 11:45:07;;;;;;;2.37;2.17;;;;;;;;;;5012348;28;20227;-87
2023/05/18 11:47:36;;;;;;;3.73;1.67;;;;;;;;;;5012528;28;20204;-87
2023/05/18 11:50:09;;;;;;;7.77;2.00;;;;;;;;;;5012602;28;20200;-87
2023/05/18 11:52:48;;;;;;;4.07;2.90;;;;;;;;;;5013075;28;20312;-87
2023/05/18 11:55:19;;;;;;;3.97;3.10;;;;;;;;;;5013438;28;20203;-87
2023/05/18 11:57:48;;;;;;;2.83;1.63;;;;;;;;;;5013381;28;20236;-87
2023/05/18 12:00:18;;;;;;;3.77;1.83;;;;;;;;;;5012574;28;20206;-87
2023/05/18 12:02:47;;;;;;;4.00;2.23;;;;;;;;;;5012737;28;20207;-87
2023/05/18 12:05:17;;;;;;;10.63;2.53;;;;;;;;;;5012444;28;20293;-87
2023/05/18 12:07:52;;;;;;;4.47;2.37;;;;;;;;;;5012914;28;20201;-87
2023/05/18 12:10:21;;;;;;;0.90;0.90;;;;;;;;;;5012759;28;20216;-87
2023/05/18 12:12:52;;;;;;;3.83;2.43;;;;;;;;;;5012300;28;20225;-87
2023/05/18 12:15:22;;;;;;;2.40;1.73;;;;;;;;;;5012663;28;20203;-87
2023/05/18 12:17:52;;;;;;;11.70;3.10;;;;;;;;;;5010348;28;20211;-87
2023/05/18 12:20:23;;;;;;;1.17;1.07;;;;;;;;;;5012647;28;20222;-87
2023/05/18 12:22:53;;;;;;;2.77;1.80;;;;;;;;;;5012462;28;20203;-87
2023/05/18 12:25:23;;;;;;;6.90;2.37;;;;;;;;;;5012749;28;20269;-87
2023/05/18 12:27:52;;;;;;;7.20;3.40;;;;;;;;;;5012753;28;20230;-86
2023/05/18 12:30:21;;;;;;;3.07;1.60;;;;;;;;;;5012219;28;20229;-87
2023/05/18 12:32:51;;;;;;;4.60;2.37;;;;;;;;;;5013080;28;20351;-87
2023/05/18 12:35:23;;;;;;;2.27;1.80;;;;;;;;;;5013632;28;20233;-87
2023/05/18 12:37:54;;;;;;;4.97;2.60;;;;;;;;;;5016246;28;20210;-87
2023/05/18 12:40:23;;;;;;;3.10;2.23;;;;;;;;;;5016829;28;20205;-86
2023/05/18 12:42:52;;;;;;;2.90;2.60;;;;;;;;;;5016597;28;20213;-87
2023/05/18 12:45:23;;;;;;;3.20;1.80;;;;;;;;;;5015814;28;20222;-87
2023/05/18 12:47:53;;;;;;;5.17;2.13;;;;;;;;;;5016613;28;20207;-87
2023/05/18 12:50:25;;;;;;;1.70;1.60;;;;;;;;;;5016165;28;20200;-87
2023/05/18 12:52:55;;;;;;;2.17;1.97;;;;;;;;;;5015677;28;20327;-87
2023/05/18 12:55:25;;;;;;;3.10;2.40;;;;;;;;;;5015694;28;20210;-87
2023/05/18 12:58:01;;;;;;;2.97;2.27;;;;;;;;;;5016085;28;20202;-86
2023/05/18 13:00:32;;;;;;;6.13;2.97;;;;;;;;;;5016096;28;20240;-86
2023/05/18 13:03:07;;;;;;;3.20;1.97;;;;;;;;;;5015250;28;20219;-87
2023/05/18 13:05:44;;;;;;;2.63;2.40;;;;;;;;;;5015711;28;20223;-87
2023/05/18 13:08:18;;;;;;;3.23;2.53;;;;;;;;;;5015925;28;20194;-87
2023/05/18 13:10:47;;;;;;;7.97;3.30;;;;;;;;;;5015534;28;20202;-87
2023/05/18 13:13:32;;;;;;;7.03;2.97;;;;;;;;;;5015794;28;20297;-87
2023/05/18 13:16:01;;;;;;;1.93;1.83;;;;;;;;;;5016303;28;20219;-87
2023/05/18 13:18:29;;;;;;;6.53;3.50;;;;;;;;;;5015319;28;20234;-87
2023/05/18 13:20:59;;;;;;;6.53;2.53;;;;;;;;;;5016136;28;20207;-86
2023/05/18 13:23:28;;;;;;;6.90;3.10;;;;;;;;;;5015686;28;20215;-87
2023/05/18 13:25:57;;;;;;;2.57;2.07;;;;;;;;;;5015187;28;20234;-86
2023/05/18 13:28:27;;;;;;;4.10;2.87;;;;;;;;;;5015255;28;20265;-87
2023/05/18 13:30:56;;;;;;;2.50;2.30;;;;;;;;;;5015367;28;20209;-87
2023/05/18 13:33:24;;;;;;;1.17;1.10;;;;;;;;;;5014960;28;20218;-87
2023/05/18 13:35:53;;;;;;;4.20;2.57;;;;;;;;;;5015486;28;20245;-87
2023/05/18 13:38:22;;;;;;;4.10;2.23;;;;;;;;;;5015245;28;20208;-87
2023/05/18 13:40:51;;;;;;;6.97;2.23;;;;;;;;;;5015559;28;20206;-87
2023/05/18 13:43:20;;;;;;;11.80;3.07;;;;;;;;;;5015174;28;20210;-87
2023/05/18 13:45:48;;;;;;;4.47;2.73;;;;;;;;;;5014926;28;20223;-87
2023/05/18 13:48:17;;;;;;;3.33;2.23;;;;;;;;;;5014950;28;20195;-87
2023/05/18 13:50:46;;;;;;;3.40;3.10;;;;;;;;;;5015356;28;20219;-87
2023/05/18 13:53:14;;;;;;;1.10;1.10;;;;;;;;;;5015440;28;20226;-87
2023/05/18 13:55:44;;;;;;;3.90;3.13;;;;;;;;;;5014975;28;20210;-87
2023/05/18 13:58:13;;;;;;;3.73;2.43;;;;;;;;;;5014988;28;20208;-87
2023/05/18 14:00:41;;;;;;;10.33;2.90;;;;;;;;;;5015150;28;20203;-86
2023/05/18 14:03:10;;;;;;;3.17;1.90;;;;;;;;;;5014905;28;20238;-87
2023/05/18 14:05:39;;;;;;;3.03;2.00;;;;;;;;;;5014323;28;20246;-87
2023/05/18 14:08:07;;;;;;;8.97;2.10;;;;;;;;;;5014686;28;20204;-87
2023/05/18 14:10:36;;;;;;;5.23;2.83;;;;;;;;;;5014934;28;20208;-87
2023/05/18 14:13:07;;;;;;;5.43;3.10;;;;;;;;;;5014243;28;20212;-87
2023/05/18 14:15:35;;;;;;;2.33;1.67;;;;;;;;;;5013976;28;20191;-87
2023/05/18 14:18:04;;;;;;;2.17;1.97;;;;;;;;;;5014081;28;20394;-87
2023/05/18 14:20:32;;;;;;;2.30;2.10;;;;;;;;;;5014719;28;20200;-86
2023/05/18 14:23:01;;;;;;;5.30;2.47;;;;;;;;;;5014027;28;20196;-86
2023/05/18 14:25:32;;;;;;;9.07;3.13;;;;;;;;;;5014508;28;20216;-86
2023/05/18 14:28:00;;;;;;;3.60;2.17;;;;;;;;;;5014310;28;20225;-87
2023/05/18 14:30:32;;;;;;;11.50;3.20;;;;;;;;;;5014060;28;20350;-86
2023/05/18 14:33:01;;;;;;;1.23;1.13;;;;;;;;;;5014439;28;20202;-86
2023/05/18 14:35:29;;;;;;;3.80;2.97;;;;;;;;;;5014329;28;20203;-86
2023/05/18 14:37:58;;;;;;;5.73;1.80;;;;;;;;;;5013774;28;20254;-87
2023/05/18 14:40:26;;;;;;;5.07;3.10;;;;;;;;;;5013803;28;20206;-86
2023/05/18 14:42:55;;;;;;;2.77;2.27;;;;;;;;;;5014273;28;20222;-87
2023/05/18 14:45:23;;;;;;;4.57;2.33;;;;;;;;;;5014729;28;20230;-87
2023/05/18 14:47:53;;;;;;;4.43;2.40;;;;;;;;;;5013929;28;20214;-87
2023/05/18 14:50:22;;;;;;;1.63;1.37;;;;;;;;;;5013855;28;20192;-87
2023/05/18 14:52:51;;;;;;;5.20;2.13;;;;;;;;;;5013542;28;20196;-87
2023/05/18 14:55:19;;;;;;;13.07;4.17;;;;;;;;;;5013576;28;20202;-86
2023/05/18 14:57:48;;;;;;;1.63;1.53;;;;;;;;;;5014413;28;20223;-86